createdAt,value
2022-10-17T00:00:42.464Z,9.20
2022-10-17T00:03:09.512Z,10.18
2022-10-17T00:05:41.096Z,9.13
2022-10-17T00:08:07.755Z,9.55
2022-10-17T00:10:34.543Z,9.77
2022-10-17T00:13:01.323Z,10.52
2022-10-17T00:15:28.074Z,9.88
2022-10-17T00:17:54.661Z,9.65
2022-10-17T00:20:21.204Z,9.45
2022-10-17T00:22:47.728Z,8.90
2022-10-17T00:25:14.448Z,8.43
2022-10-17T00:27:41.986Z,8.75
2022-10-17T00:30:12.651Z,9.77
2022-10-17T00:32:39.742Z,8.57
2022-10-17T00:35:06.618Z,8.82
2022-10-17T00:37:33.684Z,9.93
2022-10-17T00:40:00.454Z,9.00
2022-10-17T00:42:28.387Z,9.48
2022-10-17T00:45:00.900Z,9.55
2022-10-17T00:47:28.849Z,9.55
2022-10-17T00:49:55.538Z,9.90
2022-10-17T00:52:26.670Z,9.30
2022-10-17T00:55:29.544Z,9.00
2022-10-17T00:57:57.819Z,8.93
2022-10-17T01:00:24.954Z,9.38
2022-10-17T01:02:51.712Z,8.98
2022-10-17T01:05:18.974Z,8.93
2022-10-17T01:07:47.206Z,8.68
2022-10-17T01:10:14.931Z,8.73
2022-10-17T01:12:52.844Z,8.73
2022-10-17T01:16:04.126Z,9.00
2022-10-17T01:18:54.841Z,8.20
2022-10-17T01:24:14.612Z,8.88
2022-10-17T01:26:43.686Z,8.70
2022-10-17T01:29:13.242Z,8.13
2022-10-17T01:32:05.890Z,8.70
2022-10-17T01:34:39.546Z,8.48
2022-10-17T01:37:21.761Z,7.90
2022-10-17T01:40:17.270Z,9.40
2022-10-17T01:43:02.704Z,9.50
2022-10-17T01:45:37.016Z,8.80
2022-10-17T01:48:09.945Z,8.75
2022-10-17T01:50:41.783Z,8.75
2022-10-17T01:53:14.763Z,8.38
2022-10-17T01:55:44.226Z,9.07
2022-10-17T01:58:16.772Z,9.32
2022-10-17T02:00:45.523Z,8.05
2022-10-17T02:03:17.398Z,9.02
2022-10-17T02:05:44.816Z,9.88
2022-10-17T02:08:12.209Z,8.90
2022-10-17T02:10:56.048Z,9.18
2022-10-17T02:13:31.776Z,8.65
2022-10-17T02:16:35.640Z,8.30
2022-10-17T02:19:14.934Z,8.13
2022-10-17T02:21:51.209Z,8.00
2022-10-17T02:24:31.195Z,8.77
2022-10-17T02:27:11.910Z,7.85
2022-10-17T02:29:49.184Z,8.75
2022-10-17T02:32:26.590Z,8.25
2022-10-17T02:34:58.452Z,8.15
2022-10-17T02:37:29.203Z,7.88
2022-10-17T02:39:59.570Z,7.88
2022-10-17T02:42:27.534Z,8.32
2022-10-17T02:44:57.641Z,8.32
2022-10-17T02:47:35.097Z,8.50
2022-10-17T02:50:01.754Z,7.93
2022-10-17T02:52:48.440Z,8.35
2022-10-17T02:55:33.431Z,8.32
2022-10-17T02:58:05.287Z,8.10
2022-10-17T03:00:32.842Z,8.48
2022-10-17T03:02:59.367Z,7.90
2022-10-17T03:05:28.991Z,8.40
2022-10-17T03:07:56.945Z,8.40
2022-10-17T03:10:23.838Z,7.82
2022-10-17T03:12:50.338Z,7.55
2022-10-17T03:15:16.926Z,8.23
2022-10-17T03:17:43.516Z,7.30
2022-10-17T03:20:10.419Z,7.55
2022-10-17T03:22:37.181Z,7.50
2022-10-17T03:25:03.857Z,7.13
2022-10-17T03:27:30.718Z,6.95
2022-10-17T03:29:57.543Z,7.30
2022-10-17T03:32:24.094Z,7.03
2022-10-17T03:34:50.611Z,7.38
2022-10-17T03:37:17.185Z,7.20
2022-10-17T03:39:43.727Z,7.10
2022-10-17T03:42:10.266Z,7.35
2022-10-17T03:44:36.753Z,7.15
2022-10-17T03:47:03.258Z,7.35
2022-10-17T03:49:29.758Z,6.85
2022-10-17T03:51:56.321Z,6.88
2022-10-17T03:54:22.897Z,6.80
2022-10-17T03:56:49.514Z,6.72
2022-10-17T03:59:16.787Z,7.47
2022-10-17T04:01:43.518Z,6.55
2022-10-17T04:04:10.426Z,6.63
2022-10-17T04:06:37.749Z,7.20
2022-10-17T04:09:05.570Z,6.88
2022-10-17T04:11:32.281Z,6.57
2022-10-17T04:14:02.380Z,7.53
2022-10-17T04:16:29.289Z,8.10
2022-10-17T04:18:57.190Z,8.00
2022-10-17T04:21:25.523Z,7.57
2022-10-17T04:23:56.539Z,7.25
2022-10-17T04:26:23.567Z,7.65
2022-10-17T04:28:50.947Z,7.70
2022-10-17T04:31:18.654Z,8.65
2022-10-17T04:33:48.027Z,7.78
2022-10-17T04:36:19.595Z,7.60
2022-10-17T04:38:46.489Z,7.35
2022-10-17T04:41:17.120Z,7.65
2022-10-17T04:46:16.794Z,7.90
2022-10-17T04:48:43.316Z,7.60
2022-10-17T04:51:20.733Z,7.75
2022-10-17T04:53:50.061Z,7.75
2022-10-17T04:56:19.171Z,8.18
2022-10-17T04:58:47.998Z,7.57
2022-10-17T05:01:17.549Z,7.97
2022-10-17T05:03:44.439Z,7.80
2022-10-17T05:06:16.251Z,7.30
2022-10-17T05:08:43.071Z,7.05
2022-10-17T05:11:21.570Z,7.50
2022-10-17T05:13:56.215Z,7.47
2022-10-17T05:16:23.971Z,7.88
2022-10-17T05:18:53.074Z,22.58
2022-10-17T05:21:21.127Z,10.07
2022-10-17T05:23:47.823Z,8.07
2022-10-17T05:26:14.873Z,7.55
2022-10-17T05:28:41.644Z,7.70
2022-10-17T05:31:10.568Z,7.70
2022-10-17T05:33:39.789Z,7.85
2022-10-17T05:36:07.338Z,6.88
2022-10-17T05:38:34.061Z,7.22
2022-10-17T05:41:02.251Z,7.30
2022-10-17T05:43:29.824Z,7.28
2022-10-17T05:45:56.751Z,6.93
2022-10-17T05:48:23.870Z,7.32
2022-10-17T05:50:50.392Z,8.30
2022-10-17T05:53:17.482Z,8.23
2022-10-17T05:55:44.021Z,7.97
2022-10-17T05:58:17.679Z,8.48
2022-10-17T06:00:49.059Z,8.57
2022-10-17T06:03:15.633Z,8.57
2022-10-17T06:05:42.233Z,7.80
2022-10-17T06:08:08.802Z,8.40
2022-10-17T06:10:35.534Z,7.40
2022-10-17T06:13:02.116Z,7.50
2022-10-17T06:15:28.713Z,7.97
2022-10-17T06:17:55.356Z,8.45
2022-10-17T06:20:21.958Z,9.45
2022-10-17T06:22:48.499Z,7.65
2022-10-17T06:25:15.036Z,7.63
2022-10-17T06:27:41.709Z,7.97
2022-10-17T06:30:08.958Z,8.48
2022-10-17T06:32:35.486Z,8.57
2022-10-17T06:35:01.980Z,8.05
2022-10-17T06:37:35.596Z,7.68
2022-10-17T06:40:04.538Z,7.78
2022-10-17T06:42:31.079Z,8.50
2022-10-17T06:44:57.649Z,8.13
2022-10-17T06:47:24.139Z,8.77
2022-10-17T06:49:50.801Z,10.80
2022-10-17T06:52:17.327Z,9.88
2022-10-17T06:54:44.519Z,9.95
2022-10-17T06:57:11.067Z,11.40
2022-10-17T06:59:37.627Z,10.10
2022-10-17T07:02:05.413Z,9.10
2022-10-17T07:04:32.297Z,9.60
2022-10-17T07:09:31.360Z,8.52
2022-10-17T07:11:58.264Z,8.35
2022-10-17T07:14:31.808Z,8.55
2022-10-17T07:16:59.553Z,9.43
2022-10-17T07:19:27.064Z,8.82
2022-10-17T07:21:54.214Z,9.85
2022-10-17T07:24:21.160Z,8.10
2022-10-17T07:26:47.730Z,8.52
2022-10-17T07:29:14.326Z,7.88
2022-10-17T07:31:40.903Z,7.97
2022-10-17T07:34:07.468Z,7.93
2022-10-17T07:36:34.154Z,8.65
2022-10-17T07:39:00.674Z,8.93
2022-10-17T07:41:27.808Z,9.85
2022-10-17T07:43:54.300Z,8.18
2022-10-17T07:46:20.861Z,7.45
2022-10-17T07:48:47.415Z,7.40
2022-10-17T07:51:13.966Z,8.13
2022-10-17T07:53:42.726Z,7.50
2022-10-17T07:56:11.955Z,6.65
2022-10-17T07:58:38.527Z,7.05
2022-10-17T08:01:10.763Z,8.88
2022-10-17T08:03:42.854Z,6.93
2022-10-17T08:06:09.486Z,7.20
2022-10-17T08:08:36.030Z,6.95
2022-10-17T08:11:07.941Z,6.90
2022-10-17T08:13:35.232Z,7.25
2022-10-17T08:16:05.281Z,8.05
2022-10-17T08:18:32.137Z,7.13
2022-10-17T08:21:03.446Z,6.82
2022-10-17T08:23:30.069Z,8.05
2022-10-17T08:26:00.566Z,5.88
2022-10-17T08:30:53.723Z,7.38
2022-10-17T08:33:20.260Z,7.13
2022-10-17T08:35:47.116Z,7.00
2022-10-17T08:38:14.189Z,7.32
2022-10-17T08:40:42.987Z,6.05
2022-10-17T08:43:24.734Z,7.97
2022-10-17T08:46:01.066Z,6.85
2022-10-17T08:48:31.616Z,5.78
2022-10-17T08:51:12.933Z,6.32
2022-10-17T08:53:47.728Z,6.45
2022-10-17T08:56:20.011Z,6.40
2022-10-17T08:58:53.046Z,6.40
2022-10-17T09:01:31.848Z,5.80
2022-10-17T09:04:07.845Z,5.63
2022-10-17T09:06:51.626Z,5.40
2022-10-17T09:09:44.726Z,5.55
2022-10-17T09:12:49.606Z,5.50
2022-10-17T09:15:43.101Z,5.25
2022-10-17T09:18:26.665Z,5.43
2022-10-17T09:21:10.537Z,4.70
2022-10-17T09:23:47.190Z,4.75
2022-10-17T09:26:14.204Z,4.72
2022-10-17T09:28:42.531Z,4.95
2022-10-17T09:31:20.423Z,5.18
2022-10-17T09:33:54.445Z,4.47
2022-10-17T09:36:29.293Z,8.30
2022-10-17T09:38:59.001Z,4.97
2022-10-17T09:41:49.855Z,5.05
2022-10-17T09:44:25.944Z,4.63
2022-10-17T09:47:18.296Z,5.32
2022-10-17T09:49:47.001Z,4.57
2022-10-17T09:52:18.352Z,4.60
2022-10-17T09:54:49.853Z,4.68
2022-10-17T09:57:18.515Z,4.63
2022-10-17T09:59:46.607Z,5.00
2022-10-17T10:02:13.046Z,6.07
2022-10-17T10:05:09.562Z,5.38
2022-10-17T10:07:39.123Z,4.72
2022-10-17T10:10:08.909Z,4.97
2022-10-17T10:12:39.114Z,4.93
2022-10-17T10:15:34.063Z,4.97
2022-10-17T10:18:00.994Z,5.22
2022-10-17T10:20:35.191Z,5.07
2022-10-17T10:23:17.312Z,4.38
2022-10-17T10:26:21.548Z,4.22
2022-10-17T10:29:01.767Z,4.57
2022-10-17T10:31:35.504Z,4.90
2022-10-17T10:34:18.772Z,4.45
2022-10-17T10:37:02.478Z,4.32
2022-10-17T10:39:47.743Z,4.65
2022-10-17T10:42:34.467Z,4.72
2022-10-17T10:45:46.470Z,6.28
2022-10-17T10:48:23.062Z,5.05
2022-10-17T10:50:54.402Z,3.92
2022-10-17T10:53:43.873Z,4.28
2022-10-17T10:56:25.422Z,4.70
2022-10-17T10:59:00.342Z,3.97
2022-10-17T11:01:48.158Z,3.67
2022-10-17T11:04:20.902Z,3.95
2022-10-17T11:06:50.051Z,4.55
2022-10-17T11:09:31.404Z,3.67
2022-10-17T11:12:07.913Z,4.40
2022-10-17T11:14:52.075Z,4.45
2022-10-17T11:17:42.830Z,3.72
2022-10-17T11:20:09.268Z,4.25
2022-10-17T11:22:44.494Z,3.70
2022-10-17T11:25:22.611Z,3.92
2022-10-17T11:27:49.143Z,4.60
2022-10-17T11:30:16.666Z,3.63
2022-10-17T11:32:45.159Z,4.70
2022-10-17T11:35:24.280Z,4.65
2022-10-17T11:38:06.365Z,3.65
2022-10-17T11:40:36.089Z,3.55
2022-10-17T11:43:44.967Z,4.20
2022-10-17T11:46:23.755Z,3.85
2022-10-17T11:48:58.975Z,3.55
2022-10-17T11:54:22.123Z,3.55
2022-10-17T11:57:28.761Z,3.70
2022-10-17T11:59:55.239Z,3.28
2022-10-17T12:02:45.991Z,3.65
2022-10-17T12:05:37.055Z,3.75
2022-10-17T12:08:16.666Z,3.03
2022-10-17T12:11:01.206Z,3.22
2022-10-17T12:13:28.105Z,3.30
2022-10-17T12:15:55.870Z,3.67
2022-10-17T12:18:25.599Z,3.30
2022-10-17T12:21:00.177Z,3.80
2022-10-17T12:23:31.648Z,4.10
2022-10-17T12:26:05.444Z,4.40
2022-10-17T12:28:38.143Z,3.80
2022-10-17T12:31:10.153Z,3.40
2022-10-17T12:33:45.774Z,3.35
2022-10-17T12:36:27.670Z,3.88
2022-10-17T12:39:03.014Z,3.65
2022-10-17T12:41:38.665Z,3.47
2022-10-17T12:44:14.795Z,3.25
2022-10-17T12:46:51.778Z,3.28
2022-10-17T12:49:41.154Z,3.47
2022-10-17T12:52:32.425Z,3.00
2022-10-17T12:55:11.957Z,2.88
2022-10-17T12:57:58.730Z,3.00
2022-10-17T13:00:31.226Z,2.97
2022-10-17T13:03:11.207Z,2.83
2022-10-17T13:05:40.571Z,2.88
2022-10-17T13:08:14.896Z,2.93
2022-10-17T13:10:46.312Z,3.28
2022-10-17T13:13:21.271Z,3.20
2022-10-17T13:15:53.278Z,2.45
2022-10-17T13:18:22.928Z,3.00
2022-10-17T13:21:05.331Z,2.95
2022-10-17T13:23:34.657Z,2.63
2022-10-17T13:26:13.521Z,2.88
2022-10-17T13:28:40.165Z,3.20
2022-10-17T13:31:07.931Z,2.90
2022-10-17T13:33:39.041Z,3.00
2022-10-17T13:36:15.903Z,3.00
2022-10-17T13:38:43.019Z,3.22
2022-10-17T13:41:34.697Z,4.10
2022-10-17T13:44:07.659Z,2.95
2022-10-17T13:46:38.282Z,3.28
2022-10-17T13:49:18.526Z,2.78
2022-10-17T13:51:47.640Z,3.20
2022-10-17T13:54:26.005Z,2.88
2022-10-17T13:56:57.619Z,3.60
2022-10-17T13:59:30.018Z,3.05
2022-10-17T14:01:56.858Z,2.78
2022-10-17T14:04:23.329Z,2.95
2022-10-17T14:06:52.318Z,3.17
2022-10-17T14:09:25.981Z,3.05
2022-10-17T14:12:03.880Z,3.25
2022-10-17T14:14:46.046Z,3.55
2022-10-17T14:17:28.907Z,2.55
2022-10-17T14:20:26.586Z,3.20
2022-10-17T14:22:50.612Z,3.10
2022-10-17T14:25:37.611Z,2.80
2022-10-17T14:28:14.391Z,3.10
2022-10-17T14:30:56.312Z,3.10
2022-10-17T14:33:30.163Z,2.70
2022-10-17T14:35:59.675Z,2.90
2022-10-17T14:38:28.195Z,2.58
2022-10-17T14:41:23.632Z,3.38
2022-10-17T14:43:58.123Z,2.90
2022-10-17T14:46:25.601Z,3.28
2022-10-17T14:48:55.155Z,3.40
2022-10-17T14:51:21.832Z,2.90
2022-10-17T14:54:26.014Z,2.80
2022-10-17T14:56:53.706Z,2.78
2022-10-17T14:59:51.709Z,2.90
2022-10-17T15:02:10.948Z,3.00
2022-10-17T15:04:37.598Z,2.42
2022-10-17T15:07:04.140Z,3.35
2022-10-17T15:09:31.138Z,3.55
2022-10-17T15:12:02.710Z,2.88
2022-10-17T15:14:29.240Z,3.22
2022-10-17T15:16:55.780Z,3.50
2022-10-17T15:19:22.254Z,3.05
2022-10-17T15:21:48.781Z,3.13
2022-10-17T15:24:15.871Z,3.00
2022-10-17T15:26:42.569Z,3.22
2022-10-17T15:29:14.785Z,3.38
2022-10-17T15:31:41.651Z,3.25
2022-10-17T15:34:08.112Z,3.40
2022-10-17T15:36:40.041Z,4.05
2022-10-17T15:39:06.591Z,3.60
2022-10-17T15:41:33.466Z,4.53
2022-10-17T15:44:00.356Z,3.70
2022-10-17T15:46:29.291Z,3.72
2022-10-17T15:48:57.192Z,3.58
2022-10-17T15:51:23.880Z,3.42
2022-10-17T15:53:50.380Z,3.45
2022-10-17T15:56:38.418Z,3.40
2022-10-17T15:59:10.669Z,3.35
2022-10-17T16:01:39.057Z,3.40
2022-10-17T16:04:05.723Z,3.55
2022-10-17T16:06:32.336Z,3.30
2022-10-17T16:08:58.868Z,4.18
2022-10-17T16:11:40.030Z,3.95
2022-10-17T16:14:18.264Z,3.80
2022-10-17T16:16:44.948Z,4.28
2022-10-17T16:19:11.530Z,3.97
2022-10-17T16:21:40.334Z,4.10
2022-10-17T16:24:11.055Z,3.88
2022-10-17T16:26:41.175Z,4.85
2022-10-17T16:29:09.300Z,4.78
2022-10-17T16:31:39.787Z,4.60
2022-10-17T16:34:06.839Z,4.68
2022-10-17T16:36:33.401Z,4.70
2022-10-17T16:39:00.471Z,4.45
2022-10-17T16:41:32.790Z,4.57
2022-10-17T16:44:01.373Z,3.85
2022-10-17T16:46:29.668Z,4.10
2022-10-17T16:48:57.094Z,4.07
2022-10-17T16:51:24.325Z,4.05
2022-10-17T16:53:52.895Z,4.05
2022-10-17T16:56:22.377Z,4.07
2022-10-17T16:58:50.090Z,4.70
2022-10-17T17:01:20.210Z,4.88
2022-10-17T17:03:47.918Z,5.10
2022-10-17T17:06:20.713Z,4.88
2022-10-17T17:08:47.965Z,4.93
2022-10-17T17:11:21.365Z,5.25
2022-10-17T17:13:50.535Z,5.10
2022-10-17T17:16:25.423Z,5.38
2022-10-17T17:18:59.064Z,5.50
2022-10-17T17:21:28.351Z,5.80
2022-10-17T17:23:58.680Z,6.20
2022-10-17T17:29:00.808Z,7.67
2022-10-17T17:31:30.884Z,6.30
2022-10-17T17:34:07.194Z,5.95
2022-10-17T17:36:39.335Z,6.07
2022-10-17T17:39:12.493Z,6.40
2022-10-17T17:41:41.221Z,6.20
2022-10-17T17:44:12.481Z,5.95
2022-10-17T17:46:49.103Z,5.53
2022-10-17T17:49:25.939Z,6.18
2022-10-17T17:51:57.159Z,6.55
2022-10-17T17:54:24.280Z,6.30
2022-10-17T17:56:53.183Z,6.70
2022-10-17T17:59:22.154Z,7.28
2022-10-17T18:01:53.593Z,8.93
2022-10-17T18:04:23.991Z,8.13
2022-10-17T18:09:17.155Z,7.88
2022-10-17T18:11:43.684Z,7.90
2022-10-17T18:14:12.477Z,7.15
2022-10-17T18:16:39.160Z,7.22
2022-10-17T18:19:07.451Z,7.32
2022-10-17T18:21:35.081Z,7.47
2022-10-17T18:24:01.882Z,6.50
2022-10-17T18:26:28.744Z,6.28
2022-10-17T18:28:55.588Z,6.50
2022-10-17T18:31:35.661Z,6.13
2022-10-17T18:34:04.830Z,6.68
2022-10-17T18:36:32.847Z,6.50
2022-10-17T18:39:00.463Z,7.10
2022-10-17T18:41:27.782Z,6.63
2022-10-17T18:43:55.678Z,7.00
2022-10-17T18:46:36.015Z,7.32
2022-10-17T18:51:29.477Z,7.95
2022-10-17T18:53:58.737Z,8.60
2022-10-17T18:56:26.084Z,8.68
2022-10-17T18:58:52.732Z,8.57
2022-10-17T19:01:24.307Z,7.75
2022-10-17T19:03:54.971Z,7.40
2022-10-17T19:06:27.770Z,8.23
2022-10-17T19:09:07.534Z,8.18
2022-10-17T19:11:37.880Z,7.25
2022-10-17T19:16:38.720Z,6.57
2022-10-17T19:19:13.613Z,7.03
2022-10-17T19:21:42.954Z,7.45
2022-10-17T19:24:16.412Z,13.20
2022-10-17T19:26:44.234Z,11.48
2022-10-17T19:29:14.546Z,9.63
2022-10-17T19:31:41.724Z,8.63
2022-10-17T19:34:09.475Z,8.60
2022-10-17T19:36:37.432Z,7.57
2022-10-17T19:39:07.236Z,7.28
2022-10-17T19:41:36.640Z,8.55
2022-10-17T19:44:04.779Z,7.47
2022-10-17T19:46:36.215Z,7.70
2022-10-17T19:49:05.120Z,8.27
2022-10-17T19:51:36.608Z,8.20
2022-10-17T19:54:03.926Z,8.68
2022-10-17T19:56:41.358Z,7.80
2022-10-17T19:59:12.795Z,8.48
2022-10-17T20:01:44.660Z,8.70
2022-10-17T20:04:13.688Z,8.80
2022-10-17T20:06:41.226Z,9.52
2022-10-17T20:09:11.144Z,8.40
2022-10-17T20:11:40.734Z,9.75
2022-10-17T20:14:07.655Z,10.27
2022-10-17T20:16:35.692Z,9.23
2022-10-17T20:19:07.269Z,9.68
2022-10-17T20:21:36.406Z,9.05
2022-10-17T20:24:06.420Z,10.57
2022-10-17T20:26:38.147Z,11.68
2022-10-17T20:29:10.924Z,10.57
2022-10-17T20:31:38.061Z,10.23
2022-10-17T20:34:04.657Z,10.02
2022-10-17T20:36:32.505Z,9.57
2022-10-17T20:38:59.751Z,9.50
2022-10-17T20:41:27.266Z,9.07
2022-10-17T20:43:55.511Z,8.95
2022-10-17T20:46:35.953Z,9.10
2022-10-17T20:49:07.517Z,9.98
2022-10-17T20:54:03.263Z,9.00
2022-10-17T20:56:40.127Z,9.38
2022-10-17T20:59:12.547Z,10.18
2022-10-17T21:01:39.101Z,10.63
2022-10-17T21:04:33.336Z,11.30
2022-10-17T21:06:53.493Z,10.85
2022-10-17T21:09:20.936Z,10.95
2022-10-17T21:11:51.159Z,11.45
2022-10-17T21:16:44.910Z,10.48
2022-10-17T21:19:12.286Z,10.13
2022-10-17T21:21:41.695Z,10.60
2022-10-17T21:24:18.020Z,10.05
2022-10-17T21:26:46.306Z,11.00
2022-10-17T21:29:14.035Z,9.77
2022-10-17T21:31:42.979Z,10.15
2022-10-17T21:34:13.501Z,10.40
2022-10-17T21:36:40.767Z,10.63
2022-10-17T21:41:39.498Z,11.52
2022-10-17T21:44:11.679Z,10.63
2022-10-17T21:46:38.216Z,10.55
2022-10-17T21:49:04.780Z,10.85
2022-10-17T21:51:31.326Z,9.02
2022-10-17T21:53:58.252Z,9.68
2022-10-17T21:56:31.085Z,10.68
2022-10-17T21:58:58.808Z,10.98
2022-10-17T22:01:29.088Z,10.23
2022-10-17T22:03:58.719Z,9.65
2022-10-17T22:06:43.246Z,9.82
2022-10-17T22:09:16.760Z,10.05
2022-10-17T22:11:50.170Z,9.82
2022-10-17T22:14:19.536Z,10.23
2022-10-17T22:16:47.341Z,10.65
2022-10-17T22:19:17.778Z,9.77
2022-10-17T22:24:12.968Z,11.15
2022-10-17T22:26:39.997Z,10.55
2022-10-17T22:29:08.285Z,11.35
2022-10-17T22:31:35.720Z,10.15
2022-10-17T22:34:03.605Z,10.00
2022-10-17T22:36:31.752Z,9.30
2022-10-17T22:38:58.349Z,9.27
2022-10-17T22:41:24.890Z,9.38
2022-10-17T22:43:51.427Z,9.88
2022-10-17T22:46:18.081Z,9.43
2022-10-17T22:48:44.865Z,10.18
2022-10-17T22:51:12.004Z,9.38
2022-10-17T22:53:38.901Z,9.15
2022-10-17T22:56:09.291Z,8.82
2022-10-17T22:58:36.255Z,8.43
2022-10-17T23:01:04.785Z,9.02
2022-10-17T23:03:32.352Z,8.68
2022-10-17T23:05:59.176Z,8.40
2022-10-17T23:08:27.081Z,9.52
2022-10-17T23:10:53.938Z,8.13
2022-10-17T23:13:22.028Z,9.32
2022-10-17T23:15:53.321Z,8.75
2022-10-17T23:18:20.739Z,9.48
2022-10-17T23:20:47.659Z,9.00
2022-10-17T23:23:14.733Z,8.82
2022-10-17T23:25:41.790Z,9.70
2022-10-17T23:28:08.772Z,8.52
2022-10-17T23:30:36.380Z,8.63
2022-10-17T23:33:03.854Z,8.85
2022-10-17T23:35:30.679Z,8.63
2022-10-17T23:37:57.230Z,9.52
2022-10-17T23:40:24.103Z,9.15
2022-10-17T23:42:50.843Z,8.75
2022-10-17T23:45:18.395Z,9.38
2022-10-17T23:47:45.121Z,8.73
2022-10-17T23:50:11.906Z,9.35
2022-10-17T23:52:38.620Z,9.05
2022-10-17T23:55:05.752Z,8.85
2022-10-17T23:57:32.669Z,9.50
2022-10-17T23:59:59.556Z,9.07
